createdAt,value
2022-07-27T00:01:39.977Z,27.20
2022-07-27T00:04:10.711Z,27.10
2022-07-27T00:06:37.463Z,27.10
2022-07-27T00:09:04.241Z,27.00
2022-07-27T00:11:31.015Z,26.90
2022-07-27T00:13:58.894Z,26.80
2022-07-27T00:16:25.701Z,26.80
2022-07-27T00:18:52.427Z,26.80
2022-07-27T00:21:19.171Z,26.70
2022-07-27T00:23:45.908Z,26.70
2022-07-27T00:26:12.611Z,26.70
2022-07-27T00:28:39.314Z,26.60
2022-07-27T00:31:06.142Z,26.60
2022-07-27T00:33:32.896Z,26.50
2022-07-27T00:35:59.613Z,26.50
2022-07-27T00:38:26.414Z,26.50
2022-07-27T00:40:53.835Z,26.60
2022-07-27T00:43:20.834Z,26.70
2022-07-27T00:45:47.560Z,26.80
2022-07-27T00:48:14.245Z,27.00
2022-07-27T00:50:41.410Z,27.10
2022-07-27T00:53:08.659Z,27.10
2022-07-27T00:55:35.363Z,27.00
2022-07-27T00:58:02.199Z,26.90
2022-07-27T01:00:28.987Z,26.90
2022-07-27T01:02:57.320Z,26.80
2022-07-27T01:05:24.612Z,26.70
2022-07-27T01:08:03.409Z,26.70
2022-07-27T01:10:30.126Z,26.60
2022-07-27T01:12:56.805Z,26.60
2022-07-27T01:15:23.570Z,26.60
2022-07-27T01:17:50.341Z,26.50
2022-07-27T01:20:17.062Z,26.50
2022-07-27T01:22:43.774Z,26.40
2022-07-27T01:25:11.415Z,26.40
2022-07-27T01:27:38.103Z,26.40
2022-07-27T01:30:24.999Z,26.50
2022-07-27T01:32:52.399Z,26.70
2022-07-27T01:35:19.184Z,26.70
2022-07-27T01:37:48.323Z,26.90
2022-07-27T01:40:15.170Z,27.00
2022-07-27T01:42:41.929Z,27.00
2022-07-27T01:45:09.014Z,26.90
2022-07-27T01:47:35.752Z,26.80
2022-07-27T01:50:02.480Z,26.80
2022-07-27T01:52:29.216Z,26.70
2022-07-27T01:54:55.905Z,26.70
2022-07-27T01:57:22.590Z,26.60
2022-07-27T01:59:49.338Z,26.50
2022-07-27T02:02:16.159Z,26.50
2022-07-27T02:04:43.034Z,26.40
2022-07-27T02:07:09.726Z,26.40
2022-07-27T02:09:36.411Z,26.40
2022-07-27T02:12:21.929Z,26.40
2022-07-27T02:14:48.610Z,26.30
2022-07-27T02:17:15.450Z,26.30
2022-07-27T02:19:45.512Z,26.40
2022-07-27T02:22:12.219Z,26.60
2022-07-27T02:24:39.232Z,26.70
2022-07-27T02:27:05.930Z,26.80
2022-07-27T02:29:32.655Z,26.90
2022-07-27T02:31:59.356Z,26.90
2022-07-27T02:34:26.044Z,26.80
2022-07-27T02:36:52.746Z,26.70
2022-07-27T02:39:19.470Z,26.70
2022-07-27T02:41:47.667Z,26.60
2022-07-27T02:44:14.718Z,26.60
2022-07-27T02:46:41.486Z,26.50
2022-07-27T02:49:08.536Z,26.50
2022-07-27T02:51:36.311Z,26.40
2022-07-27T02:54:06.262Z,26.40
2022-07-27T02:56:33.110Z,26.40
2022-07-27T02:58:59.882Z,26.40
2022-07-27T03:01:26.653Z,26.30
2022-07-27T03:03:53.370Z,26.40
2022-07-27T03:06:20.068Z,26.50
2022-07-27T03:08:46.737Z,26.70
2022-07-27T03:11:14.884Z,26.80
2022-07-27T03:13:42.193Z,26.80
2022-07-27T03:16:08.917Z,26.80
2022-07-27T03:18:35.663Z,26.80
2022-07-27T03:21:02.369Z,26.70
2022-07-27T03:23:30.185Z,26.70
2022-07-27T03:25:56.912Z,26.60
2022-07-27T03:28:23.623Z,26.50
2022-07-27T03:30:50.458Z,26.50
2022-07-27T03:33:17.176Z,26.40
2022-07-27T03:35:43.913Z,26.40
2022-07-27T03:38:11.455Z,26.10
2022-07-27T03:40:38.373Z,25.60
2022-07-27T03:43:05.071Z,25.30
2022-07-27T03:45:31.750Z,25.00
2022-07-27T03:47:58.426Z,24.60
2022-07-27T03:50:25.086Z,24.40
2022-07-27T03:52:51.977Z,24.20
2022-07-27T03:55:21.845Z,24.10
2022-07-27T03:57:48.532Z,24.00
2022-07-27T04:00:15.900Z,23.80
2022-07-27T04:02:42.867Z,23.70
2022-07-27T04:05:09.873Z,23.50
2022-07-27T04:07:36.591Z,23.50
2022-07-27T04:10:03.868Z,23.40
2022-07-27T04:12:30.769Z,23.40
2022-07-27T04:14:58.512Z,23.30
2022-07-27T04:17:54.702Z,23.30
2022-07-27T04:20:12.333Z,23.20
2022-07-27T04:22:39.032Z,23.20
2022-07-27T04:25:05.946Z,23.20
2022-07-27T04:27:32.688Z,23.20
2022-07-27T04:29:59.367Z,23.20
2022-07-27T04:32:26.079Z,23.30
2022-07-27T04:34:52.767Z,23.50
2022-07-27T04:37:19.477Z,23.70
2022-07-27T04:39:46.223Z,23.90
2022-07-27T04:42:13.022Z,24.00
2022-07-27T04:44:39.789Z,24.00
2022-07-27T04:47:06.620Z,24.00
2022-07-27T04:49:33.297Z,24.00
2022-07-27T04:52:00.032Z,23.90
2022-07-27T04:54:26.769Z,23.90
2022-07-27T04:56:53.497Z,23.90
2022-07-27T04:59:20.333Z,23.80
2022-07-27T05:01:47.085Z,23.90
2022-07-27T05:04:13.899Z,23.90
2022-07-27T05:06:40.745Z,23.80
2022-07-27T05:09:07.432Z,23.80
2022-07-27T05:11:34.135Z,23.80
2022-07-27T05:14:00.919Z,23.80
2022-07-27T05:16:28.959Z,24.00
2022-07-27T05:18:56.358Z,24.20
2022-07-27T05:21:23.192Z,24.40
2022-07-27T05:23:49.898Z,24.50
2022-07-27T05:26:16.549Z,24.60
2022-07-27T05:28:43.718Z,24.80
2022-07-27T05:31:10.391Z,25.00
2022-07-27T05:33:37.066Z,25.20
2022-07-27T05:36:03.811Z,25.40
2022-07-27T05:38:39.326Z,25.70
2022-07-27T05:41:06.889Z,25.90
2022-07-27T05:43:33.671Z,26.00
2022-07-27T05:46:00.586Z,26.10
2022-07-27T05:48:27.438Z,26.00
2022-07-27T05:50:54.161Z,26.00
2022-07-27T05:53:20.903Z,26.00
2022-07-27T05:55:58.324Z,25.90
2022-07-27T05:58:29.635Z,25.90
2022-07-27T06:00:56.668Z,25.90
2022-07-27T06:03:23.752Z,25.80
2022-07-27T06:05:50.611Z,25.80
2022-07-27T06:08:17.291Z,25.80
2022-07-27T06:10:43.984Z,25.80
2022-07-27T06:13:11.625Z,25.80
2022-07-27T06:15:38.523Z,25.80
2022-07-27T06:18:06.881Z,25.80
2022-07-27T06:20:33.658Z,25.90
2022-07-27T06:23:00.863Z,26.00
2022-07-27T06:25:34.050Z,26.20
2022-07-27T06:28:01.972Z,26.40
2022-07-27T06:30:28.739Z,26.40
2022-07-27T06:32:55.411Z,26.40
2022-07-27T06:35:23.400Z,26.40
2022-07-27T06:37:53.014Z,26.30
2022-07-27T06:40:19.966Z,26.30
2022-07-27T06:42:46.693Z,26.30
2022-07-27T06:45:13.386Z,26.20
2022-07-27T06:47:49.963Z,26.20
2022-07-27T06:50:20.395Z,26.20
2022-07-27T06:52:47.529Z,26.10
2022-07-27T06:55:14.214Z,26.10
2022-07-27T06:57:42.161Z,26.10
2022-07-27T07:00:10.335Z,26.10
2022-07-27T07:02:37.146Z,26.00
2022-07-27T07:05:04.253Z,26.10
2022-07-27T07:07:31.811Z,26.30
2022-07-27T07:09:58.557Z,26.40
2022-07-27T07:12:25.853Z,26.60
2022-07-27T07:14:52.650Z,26.80
2022-07-27T07:17:19.937Z,26.80
2022-07-27T07:19:46.773Z,26.70
2022-07-27T07:22:13.444Z,26.70
2022-07-27T07:24:40.157Z,26.60
2022-07-27T07:27:07.750Z,26.50
2022-07-27T07:29:34.483Z,26.40
2022-07-27T07:32:01.190Z,26.40
2022-07-27T07:34:29.926Z,26.40
2022-07-27T07:36:56.670Z,26.40
2022-07-27T07:39:26.643Z,26.30
2022-07-27T07:41:57.525Z,26.30
2022-07-27T07:44:24.496Z,26.30
2022-07-27T07:46:52.014Z,26.20
2022-07-27T07:49:19.274Z,26.20
2022-07-27T07:52:04.849Z,26.20
2022-07-27T07:54:31.808Z,26.40
2022-07-27T07:56:58.491Z,26.50
2022-07-27T07:59:25.291Z,26.70
2022-07-27T08:01:52.361Z,26.90
2022-07-27T08:04:19.070Z,26.90
2022-07-27T08:06:46.031Z,26.90
2022-07-27T08:09:17.230Z,26.80
2022-07-27T08:11:44.143Z,26.80
2022-07-27T08:14:11.454Z,26.70
2022-07-27T08:16:39.181Z,26.60
2022-07-27T08:19:06.178Z,26.60
2022-07-27T08:21:36.377Z,26.50
2022-07-27T08:24:03.181Z,26.50
2022-07-27T08:26:30.631Z,26.40
2022-07-27T08:28:57.491Z,26.40
2022-07-27T08:31:50.927Z,26.40
2022-07-27T08:34:13.089Z,26.40
2022-07-27T08:36:40.522Z,26.30
2022-07-27T08:39:08.702Z,26.30
2022-07-27T08:41:37.706Z,26.30
2022-07-27T08:44:09.958Z,26.50
2022-07-27T08:46:37.020Z,26.60
2022-07-27T08:49:03.841Z,26.80
2022-07-27T08:51:30.841Z,26.80
2022-07-27T08:53:57.575Z,26.80
2022-07-27T08:56:24.416Z,26.70
2022-07-27T08:58:51.769Z,26.70
2022-07-27T09:01:18.557Z,26.60
2022-07-27T09:03:45.842Z,26.50
2022-07-27T09:06:12.552Z,26.50
2022-07-27T09:08:41.832Z,26.50
2022-07-27T09:11:15.474Z,26.40
2022-07-27T09:13:42.858Z,26.40
2022-07-27T09:16:18.035Z,26.40
2022-07-27T09:18:45.671Z,26.40
2022-07-27T09:21:19.593Z,26.60
2022-07-27T09:23:48.430Z,26.70
2022-07-27T09:26:30.393Z,27.00
2022-07-27T09:28:59.116Z,27.10
2022-07-27T09:31:25.928Z,27.10
2022-07-27T09:33:56.958Z,27.00
2022-07-27T09:36:24.769Z,26.90
2022-07-27T09:39:00.035Z,26.80
2022-07-27T09:41:47.836Z,26.70
2022-07-27T09:44:32.546Z,26.70
2022-07-27T09:47:00.010Z,26.60
2022-07-27T09:49:27.091Z,26.60
2022-07-27T09:52:00.525Z,26.60
2022-07-27T09:54:28.227Z,26.50
2022-07-27T09:56:59.420Z,26.50
2022-07-27T09:59:28.111Z,26.60
2022-07-27T10:01:55.827Z,26.70
2022-07-27T10:04:23.735Z,26.80
2022-07-27T10:07:02.857Z,27.00
2022-07-27T10:09:31.763Z,27.20
2022-07-27T10:11:58.581Z,27.20
2022-07-27T10:14:26.041Z,27.20
2022-07-27T10:16:52.879Z,27.10
2022-07-27T10:19:31.981Z,27.00
2022-07-27T10:21:58.754Z,26.90
2022-07-27T10:24:34.002Z,26.80
2022-07-27T10:27:17.901Z,26.70
2022-07-27T10:29:44.590Z,26.70
2022-07-27T10:32:11.400Z,26.70
2022-07-27T10:34:39.053Z,26.60
2022-07-27T10:37:11.905Z,26.60
2022-07-27T10:39:39.570Z,26.60
2022-07-27T10:42:19.386Z,26.70
2022-07-27T10:44:52.927Z,26.90
2022-07-27T10:47:33.109Z,27.10
2022-07-27T10:50:12.301Z,27.20
2022-07-27T10:52:52.547Z,27.30
2022-07-27T10:55:28.380Z,27.20
2022-07-27T10:57:57.095Z,27.20
2022-07-27T11:00:42.618Z,27.00
2022-07-27T11:03:09.326Z,27.00
2022-07-27T11:05:59.697Z,26.90
2022-07-27T11:08:47.319Z,26.80
2022-07-27T11:11:16.903Z,26.80
2022-07-27T11:13:43.564Z,26.70
2022-07-27T11:16:26.211Z,26.70
2022-07-27T11:18:56.027Z,26.70
2022-07-27T11:21:38.456Z,26.70
2022-07-27T11:24:16.530Z,26.90
2022-07-27T11:26:44.471Z,27.10
2022-07-27T11:29:11.857Z,27.20
2022-07-27T11:31:54.939Z,27.30
2022-07-27T11:34:35.666Z,27.30
2022-07-27T11:37:03.272Z,27.20
2022-07-27T11:42:23.189Z,27.00
2022-07-27T11:44:50.915Z,27.00
2022-07-27T11:47:18.093Z,26.90
2022-07-27T11:49:44.885Z,26.90
2022-07-27T11:52:12.591Z,26.80
2022-07-27T11:54:39.981Z,26.80
2022-07-27T11:57:07.571Z,26.70
2022-07-27T11:59:34.914Z,26.70
2022-07-27T12:02:02.602Z,26.90
2022-07-27T12:04:31.151Z,27.00
2022-07-27T12:06:57.962Z,27.20
2022-07-27T12:09:24.834Z,27.40
2022-07-27T12:11:55.235Z,27.30
2022-07-27T12:14:48.037Z,27.30
2022-07-27T12:17:14.891Z,27.20
2022-07-27T12:19:41.709Z,27.10
2022-07-27T12:22:08.440Z,27.10
2022-07-27T12:24:39.098Z,27.00
2022-07-27T12:27:06.803Z,26.90
2022-07-27T12:29:33.872Z,26.80
2022-07-27T12:32:03.944Z,26.80
2022-07-27T12:34:34.405Z,26.80
2022-07-27T12:37:01.190Z,26.70
2022-07-27T12:39:28.263Z,26.80
2022-07-27T12:42:05.456Z,27.00
2022-07-27T12:44:33.339Z,27.10
2022-07-27T12:47:27.425Z,27.30
2022-07-27T12:50:03.702Z,27.40
2022-07-27T12:52:30.842Z,27.30
2022-07-27T12:54:57.675Z,27.20
2022-07-27T12:57:46.609Z,27.20
2022-07-27T13:00:12.218Z,27.10
2022-07-27T13:02:39.000Z,27.00
2022-07-27T13:05:06.287Z,27.00
2022-07-27T13:07:32.989Z,26.90
2022-07-27T13:10:02.967Z,26.80
2022-07-27T13:12:30.834Z,26.80
2022-07-27T13:14:57.773Z,26.80
2022-07-27T13:17:24.519Z,26.90
2022-07-27T13:19:51.252Z,27.10
2022-07-27T13:22:17.957Z,27.20
2022-07-27T13:24:44.713Z,27.40
2022-07-27T13:27:12.397Z,27.40
2022-07-27T13:29:39.353Z,27.30
2022-07-27T13:32:06.768Z,27.30
2022-07-27T13:34:33.478Z,27.20
2022-07-27T13:37:00.223Z,27.10
2022-07-27T13:39:27.190Z,27.00
2022-07-27T13:41:55.187Z,27.00
2022-07-27T13:44:49.871Z,26.90
2022-07-27T13:47:09.013Z,26.90
2022-07-27T13:49:38.748Z,26.80
2022-07-27T13:52:05.625Z,26.80
2022-07-27T13:54:32.415Z,27.00
2022-07-27T13:56:59.110Z,27.10
2022-07-27T13:59:25.820Z,27.30
2022-07-27T14:01:54.998Z,27.40
2022-07-27T14:04:23.085Z,27.40
2022-07-27T14:06:49.793Z,27.30
2022-07-27T14:09:17.763Z,27.30
2022-07-27T14:11:51.058Z,27.20
2022-07-27T14:14:19.923Z,27.10
2022-07-27T14:16:51.152Z,27.00
2022-07-27T14:19:20.078Z,27.00
2022-07-27T14:21:47.944Z,26.90
2022-07-27T14:24:14.676Z,26.90
2022-07-27T14:26:41.376Z,26.80
2022-07-27T14:29:08.090Z,26.80
2022-07-27T14:31:35.072Z,27.00
2022-07-27T14:34:01.912Z,27.10
2022-07-27T14:36:30.161Z,27.20
2022-07-27T14:38:56.983Z,27.40
2022-07-27T14:41:23.678Z,27.50
2022-07-27T14:43:50.416Z,27.40
2022-07-27T14:46:17.311Z,27.30
2022-07-27T14:51:31.112Z,27.20
2022-07-27T14:53:57.884Z,27.10
2022-07-27T14:56:24.588Z,27.00
2022-07-27T14:58:51.293Z,26.90
2022-07-27T15:01:18.029Z,26.90
2022-07-27T15:03:44.917Z,26.80
2022-07-27T15:06:11.626Z,26.90
2022-07-27T15:08:38.312Z,27.00
2022-07-27T15:11:05.071Z,27.10
2022-07-27T15:13:31.817Z,27.30
2022-07-27T15:15:58.624Z,27.40
2022-07-27T15:18:25.427Z,27.50
2022-07-27T15:20:52.169Z,27.40
2022-07-27T15:23:18.889Z,27.40
2022-07-27T15:25:45.707Z,27.30
2022-07-27T15:28:12.873Z,27.20
2022-07-27T15:30:39.642Z,27.10
2022-07-27T15:33:06.643Z,27.10
2022-07-27T15:35:33.501Z,27.00
2022-07-27T15:38:00.196Z,27.00
2022-07-27T15:40:42.682Z,26.90
2022-07-27T15:43:13.378Z,26.90
2022-07-27T15:45:40.556Z,27.00
2022-07-27T15:48:08.487Z,27.10
2022-07-27T15:50:35.915Z,27.30
2022-07-27T15:53:02.641Z,27.40
2022-07-27T15:55:29.363Z,27.50
2022-07-27T15:57:57.415Z,27.50
2022-07-27T16:00:25.646Z,27.40
2022-07-27T16:02:52.576Z,27.40
2022-07-27T16:05:20.545Z,27.30
2022-07-27T16:07:47.269Z,27.10
2022-07-27T16:10:14.034Z,27.00
2022-07-27T16:12:40.852Z,26.90
2022-07-27T16:15:07.883Z,26.70
2022-07-27T16:17:34.573Z,26.70
2022-07-27T16:20:01.465Z,26.60
2022-07-27T16:22:29.486Z,26.50
2022-07-27T16:24:56.263Z,26.50
2022-07-27T16:27:22.986Z,26.60
2022-07-27T16:29:49.848Z,26.70
2022-07-27T16:32:16.534Z,26.70
2022-07-27T16:34:43.259Z,26.70
2022-07-27T16:37:10.078Z,26.60
2022-07-27T16:39:36.832Z,26.50
2022-07-27T16:42:03.768Z,26.40
2022-07-27T16:44:30.547Z,26.40
2022-07-27T16:46:57.573Z,26.30
2022-07-27T16:49:33.355Z,26.30
2022-07-27T16:52:03.900Z,26.20
2022-07-27T16:54:34.137Z,26.10
2022-07-27T16:57:03.869Z,26.10
2022-07-27T16:59:30.673Z,26.10
2022-07-27T17:01:57.449Z,26.10
2022-07-27T17:04:24.266Z,26.30
2022-07-27T17:06:51.067Z,26.40
2022-07-27T17:09:18.258Z,26.30
2022-07-27T17:11:45.039Z,26.30
2022-07-27T17:14:16.484Z,26.20
2022-07-27T17:16:51.727Z,26.10
2022-07-27T17:19:19.158Z,26.10
2022-07-27T17:21:46.024Z,26.00
2022-07-27T17:24:12.735Z,25.90
2022-07-27T17:26:39.480Z,25.90
2022-07-27T17:29:06.225Z,25.90
2022-07-27T17:31:32.991Z,25.80
2022-07-27T17:33:59.717Z,25.90
2022-07-27T17:36:26.831Z,26.00
2022-07-27T17:38:53.509Z,26.10
2022-07-27T17:41:24.536Z,26.20
2022-07-27T17:43:52.843Z,26.20
2022-07-27T17:46:20.309Z,26.10
2022-07-27T17:48:47.170Z,26.00
2022-07-27T17:51:13.930Z,25.90
2022-07-27T17:53:40.639Z,25.90
2022-07-27T17:56:08.503Z,25.90
2022-07-27T17:58:35.623Z,25.80
2022-07-27T18:01:02.553Z,25.80
2022-07-27T18:03:35.479Z,25.80
2022-07-27T18:06:02.209Z,25.80
2022-07-27T18:08:29.763Z,25.80
2022-07-27T18:10:56.573Z,25.90
2022-07-27T18:13:23.288Z,26.10
2022-07-27T18:16:05.540Z,26.10
2022-07-27T18:18:33.206Z,26.00
2022-07-27T18:21:01.638Z,26.00
2022-07-27T18:23:28.369Z,25.90
2022-07-27T18:25:55.097Z,25.80
2022-07-27T18:28:21.824Z,25.70
2022-07-27T18:30:49.167Z,25.70
2022-07-27T18:33:16.026Z,25.60
2022-07-27T18:35:43.252Z,25.50
2022-07-27T18:38:10.352Z,25.40
2022-07-27T18:40:37.341Z,25.40
2022-07-27T18:43:05.097Z,25.40
2022-07-27T18:45:34.746Z,25.40
2022-07-27T18:48:01.698Z,25.50
2022-07-27T18:50:28.468Z,25.60
2022-07-27T18:52:55.990Z,25.70
2022-07-27T18:55:23.023Z,25.60
2022-07-27T18:57:52.639Z,25.50
2022-07-27T19:00:19.912Z,25.40
2022-07-27T19:02:47.033Z,25.30
2022-07-27T19:05:18.160Z,25.30
2022-07-27T19:07:56.927Z,25.30
2022-07-27T19:10:24.113Z,25.40
2022-07-27T19:12:51.727Z,25.50
2022-07-27T19:15:18.478Z,25.50
2022-07-27T19:17:47.689Z,25.60
2022-07-27T19:20:15.595Z,25.60
2022-07-27T19:22:47.441Z,25.60
2022-07-27T19:25:14.353Z,25.70
2022-07-27T19:27:42.534Z,25.90
2022-07-27T19:30:10.426Z,26.10
2022-07-27T19:32:37.200Z,26.20
2022-07-27T19:35:04.539Z,26.30
2022-07-27T19:37:31.462Z,26.40
2022-07-27T19:40:14.275Z,26.30
2022-07-27T19:42:45.667Z,26.30
2022-07-27T19:45:12.613Z,26.30
2022-07-27T19:47:39.364Z,26.20
2022-07-27T19:50:06.180Z,26.20
2022-07-27T19:52:33.391Z,26.10
2022-07-27T19:55:00.544Z,26.10
2022-07-27T19:57:27.391Z,26.00
2022-07-27T19:59:56.331Z,26.00
2022-07-27T20:02:25.131Z,25.90
2022-07-27T20:04:52.039Z,25.90
2022-07-27T20:07:19.059Z,25.90
2022-07-27T20:09:46.505Z,26.00
2022-07-27T20:12:14.244Z,26.10
2022-07-27T20:14:42.191Z,26.30
2022-07-27T20:17:10.602Z,26.30
2022-07-27T20:19:37.940Z,26.20
2022-07-27T20:22:04.693Z,26.20
2022-07-27T20:24:32.507Z,26.10
2022-07-27T20:26:59.403Z,26.10
2022-07-27T20:29:31.276Z,26.00
2022-07-27T20:31:58.648Z,26.00
2022-07-27T20:34:25.577Z,26.00
2022-07-27T20:36:52.455Z,25.90
2022-07-27T20:39:19.584Z,25.90
2022-07-27T20:41:46.618Z,25.90
2022-07-27T20:44:13.330Z,25.80
2022-07-27T20:46:42.522Z,25.80
2022-07-27T20:49:09.460Z,25.80
2022-07-27T20:51:36.282Z,25.80
2022-07-27T20:54:04.621Z,26.00
2022-07-27T20:56:32.143Z,26.10
2022-07-27T20:58:59.109Z,26.30
2022-07-27T21:01:25.936Z,26.30
2022-07-27T21:03:52.891Z,26.30
2022-07-27T21:06:19.816Z,26.20
2022-07-27T21:08:50.187Z,26.10
2022-07-27T21:11:17.034Z,26.10
2022-07-27T21:13:43.739Z,26.00
2022-07-27T21:16:10.943Z,26.00
2022-07-27T21:18:38.093Z,25.90
2022-07-27T21:21:04.819Z,25.90
2022-07-27T21:23:53.277Z,25.90
2022-07-27T21:26:20.171Z,25.80
2022-07-27T21:28:49.183Z,25.80
2022-07-27T21:31:16.027Z,25.80
2022-07-27T21:33:42.892Z,25.70
2022-07-27T21:36:10.020Z,25.80
2022-07-27T21:38:36.773Z,25.90
2022-07-27T21:41:04.023Z,26.10
2022-07-27T21:43:31.767Z,26.20
2022-07-27T21:45:58.526Z,26.20
2022-07-27T21:48:25.267Z,26.10
2022-07-27T21:50:52.310Z,26.10
2022-07-27T21:53:19.606Z,26.00
2022-07-27T21:55:46.716Z,26.00
2022-07-27T21:58:13.779Z,25.90
2022-07-27T22:00:40.604Z,25.90
2022-07-27T22:03:07.554Z,25.80
2022-07-27T22:05:34.548Z,25.80
2022-07-27T22:08:04.406Z,25.70
2022-07-27T22:10:31.429Z,25.70
2022-07-27T22:12:58.600Z,25.60
2022-07-27T22:15:25.795Z,25.60
2022-07-27T22:17:52.598Z,25.60
2022-07-27T22:20:19.636Z,25.70
2022-07-27T22:22:47.226Z,25.80
2022-07-27T22:25:14.735Z,25.90
2022-07-27T22:27:41.454Z,26.10
2022-07-27T22:30:09.003Z,26.10
2022-07-27T22:32:36.214Z,26.00
2022-07-27T22:35:03.797Z,25.90
2022-07-27T22:37:31.007Z,25.90
2022-07-27T22:39:57.792Z,25.80
2022-07-27T22:42:24.481Z,25.80
2022-07-27T22:44:51.184Z,25.70
2022-07-27T22:47:17.879Z,25.70
2022-07-27T22:49:45.208Z,25.70
2022-07-27T22:52:12.380Z,25.60
2022-07-27T22:54:39.137Z,25.60
2022-07-27T22:57:06.017Z,25.60
2022-07-27T22:59:32.956Z,25.60
2022-07-27T23:01:59.748Z,25.50
2022-07-27T23:04:26.556Z,25.50
2022-07-27T23:06:53.263Z,25.60
2022-07-27T23:09:20.048Z,25.70
2022-07-27T23:11:46.765Z,25.90
2022-07-27T23:14:13.893Z,26.00
2022-07-27T23:16:40.983Z,26.00
2022-07-27T23:19:07.792Z,25.90
2022-07-27T23:21:34.985Z,25.90
2022-07-27T23:24:04.930Z,25.80
2022-07-27T23:26:31.875Z,25.80
2022-07-27T23:28:58.623Z,25.70
2022-07-27T23:31:26.206Z,25.70
2022-07-27T23:33:53.014Z,25.60
2022-07-27T23:36:19.776Z,25.60
2022-07-27T23:38:46.486Z,25.60
2022-07-27T23:41:13.233Z,25.50
2022-07-27T23:43:39.930Z,25.50
2022-07-27T23:46:06.977Z,25.50
2022-07-27T23:48:33.802Z,25.40
2022-07-27T23:51:00.530Z,25.40
2022-07-27T23:53:28.459Z,25.40
2022-07-27T23:55:55.354Z,25.60
2022-07-27T23:58:22.091Z,25.70
